createdAt,value
2023-03-17T00:01:45.042Z,25.10
2023-03-17T00:04:13.599Z,29.80
2023-03-17T00:06:41.797Z,32.10
2023-03-17T00:09:15.037Z,30.40
2023-03-17T00:11:43.753Z,33.40
2023-03-17T00:14:11.091Z,33.60
2023-03-17T00:16:41.667Z,35.70
2023-03-17T00:19:18.565Z,37.30
2023-03-17T00:21:49.394Z,36.20
2023-03-17T00:24:16.554Z,39.00
2023-03-17T00:26:43.970Z,38.90
2023-03-17T00:29:11.039Z,42.40
2023-03-17T00:31:39.758Z,41.30
2023-03-17T00:34:08.246Z,43.20
2023-03-17T00:36:36.236Z,46.10
2023-03-17T00:39:04.311Z,49.00
2023-03-17T00:41:31.148Z,48.70
2023-03-17T00:43:58.915Z,51.10
2023-03-17T00:46:29.483Z,52.20
2023-03-17T00:49:26.518Z,53.30
2023-03-17T00:51:58.443Z,51.30
2023-03-17T00:54:33.320Z,48.00
2023-03-17T00:57:07.796Z,41.80
2023-03-17T00:59:46.005Z,40.10
2023-03-17T01:02:14.097Z,41.30
2023-03-17T01:04:45.525Z,41.90
2023-03-17T01:07:14.395Z,36.80
2023-03-17T01:09:41.648Z,37.70
2023-03-17T01:12:12.946Z,39.30
2023-03-17T01:14:41.221Z,38.00
2023-03-17T01:17:17.274Z,37.90
2023-03-17T01:19:45.742Z,38.00
2023-03-17T01:22:13.903Z,37.70
2023-03-17T01:24:41.533Z,33.80
2023-03-17T01:27:08.686Z,34.60
2023-03-17T01:29:35.867Z,34.20
2023-03-17T01:32:02.993Z,34.70
2023-03-17T01:34:29.815Z,30.30
2023-03-17T01:36:56.985Z,25.60
2023-03-17T01:39:23.804Z,26.30
2023-03-17T01:41:50.984Z,34.80
2023-03-17T01:44:19.956Z,27.10
2023-03-17T01:46:47.786Z,27.10
2023-03-17T01:49:25.436Z,25.30
2023-03-17T01:52:14.432Z,26.80
2023-03-17T01:55:10.865Z,25.70
2023-03-17T01:57:51.715Z,26.10
2023-03-17T02:00:23.557Z,25.40
2023-03-17T02:02:54.221Z,31.40
2023-03-17T02:05:24.573Z,32.70
2023-03-17T02:07:52.754Z,38.10
2023-03-17T02:10:22.185Z,39.60
2023-03-17T02:12:54.025Z,31.70
2023-03-17T02:15:22.943Z,40.70
2023-03-17T02:17:50.244Z,40.10
2023-03-17T02:20:17.510Z,34.60
2023-03-17T02:22:47.836Z,35.80
2023-03-17T02:25:15.072Z,38.70
2023-03-17T02:27:46.599Z,26.40
2023-03-17T02:30:16.594Z,36.70
2023-03-17T02:32:43.801Z,39.80
2023-03-17T02:35:11.434Z,39.20
2023-03-17T02:37:38.919Z,39.10
2023-03-17T02:40:07.950Z,39.50
2023-03-17T02:42:35.921Z,31.00
2023-03-17T02:45:03.182Z,34.00
2023-03-17T02:47:30.273Z,36.40
2023-03-17T02:49:57.452Z,29.70
2023-03-17T02:52:25.562Z,29.30
2023-03-17T02:54:52.414Z,31.60
2023-03-17T02:57:19.673Z,35.10
2023-03-17T02:59:47.039Z,35.60
2023-03-17T03:02:14.841Z,38.70
2023-03-17T03:04:42.357Z,37.90
2023-03-17T03:07:10.314Z,37.10
2023-03-17T03:09:37.699Z,38.60
2023-03-17T03:12:06.817Z,37.90
2023-03-17T03:14:33.934Z,41.90
2023-03-17T03:17:00.857Z,41.70
2023-03-17T03:19:28.019Z,38.90
2023-03-17T03:21:54.946Z,41.10
2023-03-17T03:24:21.776Z,38.30
2023-03-17T03:26:48.616Z,40.50
2023-03-17T03:29:15.577Z,40.90
2023-03-17T03:31:43.138Z,42.00
2023-03-17T03:34:10.041Z,43.60
2023-03-17T03:36:37.346Z,43.70
2023-03-17T03:39:04.496Z,43.20
2023-03-17T03:41:32.021Z,45.50
2023-03-17T03:43:58.846Z,43.20
2023-03-17T03:46:26.972Z,42.80
2023-03-17T03:48:55.289Z,48.00
2023-03-17T03:51:22.174Z,44.30
2023-03-17T03:53:49.177Z,44.80
2023-03-17T03:56:16.220Z,50.10
2023-03-17T03:58:43.172Z,46.80
2023-03-17T04:01:10.505Z,39.80
2023-03-17T04:03:38.538Z,46.40
2023-03-17T04:06:06.490Z,42.20
2023-03-17T04:08:33.944Z,40.80
2023-03-17T04:11:01.299Z,38.30
2023-03-17T04:13:28.647Z,40.60
2023-03-17T04:15:55.609Z,32.10
2023-03-17T04:18:22.610Z,40.40
2023-03-17T04:20:49.568Z,39.10
2023-03-17T04:23:16.488Z,38.80
2023-03-17T04:25:43.425Z,41.30
2023-03-17T04:28:11.335Z,27.50
2023-03-17T04:30:38.652Z,28.50
2023-03-17T04:33:05.458Z,36.30
2023-03-17T04:35:32.491Z,38.30
2023-03-17T04:37:59.370Z,40.20
2023-03-17T04:40:26.946Z,36.60
2023-03-17T04:42:53.800Z,35.20
2023-03-17T04:45:21.255Z,38.90
2023-03-17T04:47:48.179Z,39.70
2023-03-17T04:50:15.217Z,40.00
2023-03-17T04:52:42.495Z,39.40
2023-03-17T04:55:12.146Z,39.30
2023-03-17T04:57:39.111Z,37.00
2023-03-17T05:00:07.893Z,37.60
2023-03-17T05:02:35.606Z,38.90
2023-03-17T05:05:08.112Z,37.40
2023-03-17T05:07:35.274Z,35.80
2023-03-17T05:10:02.524Z,37.10
2023-03-17T05:12:29.576Z,36.20
2023-03-17T05:14:56.434Z,34.70
2023-03-17T05:17:23.469Z,41.00
2023-03-17T05:19:50.608Z,34.90
2023-03-17T05:22:17.460Z,37.70
2023-03-17T05:24:45.005Z,31.50
2023-03-17T05:27:12.502Z,37.30
2023-03-17T05:29:39.863Z,36.00
2023-03-17T05:32:06.816Z,34.60
2023-03-17T05:34:34.033Z,34.20
2023-03-17T05:37:01.782Z,28.50
2023-03-17T05:39:28.935Z,32.40
2023-03-17T05:41:57.512Z,30.20
2023-03-17T05:44:25.385Z,34.10
2023-03-17T05:46:52.299Z,31.60
2023-03-17T05:49:19.334Z,25.00
2023-03-17T05:51:46.698Z,29.20
2023-03-17T05:54:14.187Z,17.30
2023-03-17T05:56:41.944Z,35.30
2023-03-17T05:59:10.664Z,39.00
2023-03-17T06:01:37.646Z,31.90
2023-03-17T06:04:05.076Z,35.60
2023-03-17T06:06:32.589Z,34.70
2023-03-17T06:09:00.175Z,19.60
2023-03-17T06:11:27.778Z,32.40
2023-03-17T06:13:54.993Z,24.60
2023-03-17T06:16:22.810Z,30.50
2023-03-17T06:18:50.110Z,31.20
2023-03-17T06:21:17.557Z,27.90
2023-03-17T06:23:44.586Z,32.50
2023-03-17T06:26:11.582Z,22.70
2023-03-17T06:28:38.587Z,30.00
2023-03-17T06:31:07.342Z,29.60
2023-03-17T06:33:35.547Z,22.50
2023-03-17T06:36:03.615Z,26.70
2023-03-17T06:38:30.667Z,29.70
2023-03-17T06:40:58.479Z,22.40
2023-03-17T06:43:25.545Z,23.80
2023-03-17T06:45:53.081Z,25.40
2023-03-17T06:48:20.311Z,25.80
2023-03-17T06:50:50.529Z,29.00
2023-03-17T06:53:17.793Z,24.80
2023-03-17T06:55:45.876Z,27.70
2023-03-17T06:58:13.547Z,23.50
2023-03-17T07:00:41.228Z,28.60
2023-03-17T07:03:08.315Z,24.30
2023-03-17T07:05:35.291Z,25.00
2023-03-17T07:08:02.269Z,24.50
2023-03-17T07:10:29.468Z,26.10
2023-03-17T07:12:57.067Z,23.70
2023-03-17T07:15:24.363Z,28.10
2023-03-17T07:17:51.561Z,15.10
2023-03-17T07:20:19.545Z,26.10
2023-03-17T07:22:46.935Z,24.60
2023-03-17T07:25:24.528Z,20.60
2023-03-17T07:28:06.687Z,26.00
2023-03-17T07:30:43.914Z,23.50
2023-03-17T07:33:11.898Z,25.90
2023-03-17T07:35:38.945Z,19.70
2023-03-17T07:38:06.385Z,21.80
2023-03-17T07:40:35.237Z,22.10
2023-03-17T07:43:02.935Z,21.70
2023-03-17T07:45:30.090Z,17.90
2023-03-17T07:47:57.832Z,20.10
2023-03-17T07:50:25.319Z,19.10
2023-03-17T07:52:52.296Z,18.30
2023-03-17T07:55:19.336Z,16.90
2023-03-17T07:57:46.869Z,18.80
2023-03-17T08:00:14.802Z,20.70
2023-03-17T08:02:41.924Z,18.70
2023-03-17T08:05:10.547Z,19.50
2023-03-17T08:07:41.101Z,18.60
2023-03-17T08:10:11.984Z,16.50
2023-03-17T08:12:39.894Z,16.80
2023-03-17T08:15:08.260Z,15.40
2023-03-17T08:17:36.826Z,17.00
2023-03-17T08:20:05.340Z,26.50
2023-03-17T08:22:32.650Z,25.00
2023-03-17T08:24:59.496Z,13.70
2023-03-17T08:27:27.015Z,12.30
2023-03-17T08:29:54.093Z,9.50
2023-03-17T08:32:21.025Z,10.30
2023-03-17T08:34:48.792Z,9.60
2023-03-17T08:37:15.734Z,9.50
2023-03-17T08:39:42.881Z,9.40
2023-03-17T08:42:10.062Z,10.70
2023-03-17T08:44:37.743Z,9.30
2023-03-17T08:47:05.036Z,9.20
2023-03-17T08:49:35.120Z,8.40
2023-03-17T08:52:03.745Z,9.80
2023-03-17T08:54:30.871Z,11.30
2023-03-17T08:56:58.723Z,8.90
2023-03-17T08:59:25.700Z,14.20
2023-03-17T09:01:52.743Z,11.50
2023-03-17T09:04:21.010Z,11.80
2023-03-17T09:07:02.316Z,12.10
2023-03-17T09:09:31.521Z,22.80
2023-03-17T09:11:58.413Z,10.60
2023-03-17T09:14:25.834Z,10.90
2023-03-17T09:16:53.240Z,19.00
2023-03-17T09:19:21.419Z,15.40
2023-03-17T09:21:49.109Z,8.20
2023-03-17T09:24:16.684Z,9.30
2023-03-17T09:26:44.199Z,6.60
2023-03-17T09:29:11.193Z,4.50
2023-03-17T09:31:38.913Z,4.80
2023-03-17T09:34:06.798Z,4.00
2023-03-17T09:36:34.061Z,5.00
2023-03-17T09:39:01.744Z,5.60
2023-03-17T09:41:57.358Z,5.60
2023-03-17T09:44:50.755Z,4.00
2023-03-17T09:47:36.420Z,3.20
2023-03-17T09:50:11.016Z,3.80
2023-03-17T09:52:39.318Z,5.10
2023-03-17T09:55:12.632Z,3.40
2023-03-17T09:57:41.158Z,3.30
2023-03-17T10:00:23.352Z,3.50
2023-03-17T10:02:50.697Z,4.30
2023-03-17T10:05:17.696Z,9.60
2023-03-17T10:08:26.851Z,3.60
2023-03-17T10:11:35.433Z,6.00
2023-03-17T10:14:18.250Z,3.80
2023-03-17T10:16:57.334Z,3.00
2023-03-17T10:19:39.847Z,3.50
2023-03-17T10:23:04.111Z,3.50
2023-03-17T10:25:44.566Z,6.20
2023-03-17T10:28:36.257Z,4.30
2023-03-17T10:31:30.056Z,4.30
2023-03-17T10:34:38.551Z,4.50
2023-03-17T10:37:46.302Z,3.50
2023-03-17T10:40:29.869Z,3.50
2023-03-17T10:43:12.723Z,4.10
2023-03-17T10:45:46.957Z,4.30
2023-03-17T10:48:22.874Z,3.20
2023-03-17T10:51:00.680Z,3.40
2023-03-17T10:53:45.771Z,4.10
2023-03-17T10:56:28.238Z,3.20
2023-03-17T10:59:26.633Z,3.70
2023-03-17T11:01:58.277Z,2.80
2023-03-17T11:04:38.293Z,6.10
2023-03-17T11:07:17.082Z,3.80
2023-03-17T11:09:49.873Z,3.40
2023-03-17T11:12:39.816Z,2.70
2023-03-17T11:15:14.377Z,3.10
2023-03-17T11:17:59.298Z,4.80
2023-03-17T11:21:01.796Z,4.40
2023-03-17T11:24:02.196Z,3.30
2023-03-17T11:26:32.276Z,4.10
2023-03-17T11:29:31.168Z,3.40
2023-03-17T11:32:34.138Z,4.00
2023-03-17T11:35:38.550Z,3.60
2023-03-17T11:38:42.213Z,4.00
2023-03-17T11:41:31.895Z,2.90
2023-03-17T11:44:19.176Z,3.30
2023-03-17T11:46:52.882Z,3.20
2023-03-17T11:49:25.365Z,4.90
2023-03-17T11:52:34.466Z,4.20
2023-03-17T11:55:42.383Z,5.40
2023-03-17T11:58:19.790Z,7.50
2023-03-17T12:01:00.714Z,5.30
2023-03-17T12:03:46.778Z,3.80
2023-03-17T12:06:20.809Z,3.70
2023-03-17T12:08:52.963Z,3.30
2023-03-17T12:11:28.334Z,4.40
2023-03-17T12:14:12.132Z,3.80
2023-03-17T12:16:44.221Z,4.40
2023-03-17T12:19:53.002Z,3.50
2023-03-17T12:22:31.292Z,4.80
2023-03-17T12:25:18.299Z,3.80
2023-03-17T12:28:00.821Z,3.40
2023-03-17T12:30:45.901Z,4.10
2023-03-17T12:33:39.440Z,3.20
2023-03-17T12:36:08.331Z,3.60
2023-03-17T12:38:43.809Z,3.90
2023-03-17T12:41:18.768Z,6.60
2023-03-17T12:44:04.210Z,4.90
2023-03-17T12:46:50.578Z,4.10
2023-03-17T12:49:44.149Z,3.60
2023-03-17T12:52:32.092Z,5.70
2023-03-17T12:55:25.418Z,3.20
2023-03-17T12:58:31.222Z,5.30
2023-03-17T13:01:17.863Z,2.80
2023-03-17T13:04:13.704Z,3.50
2023-03-17T13:06:58.144Z,6.30
2023-03-17T13:09:38.833Z,4.60
2023-03-17T13:14:48.352Z,4.00
2023-03-17T13:17:19.115Z,3.90
2023-03-17T13:20:14.860Z,5.00
2023-03-17T13:23:13.882Z,3.80
2023-03-17T13:25:45.872Z,3.40
2023-03-17T13:28:13.276Z,3.50
2023-03-17T13:31:52.527Z,3.40
2023-03-17T13:34:21.452Z,4.00
2023-03-17T13:36:54.362Z,3.50
2023-03-17T13:39:42.715Z,3.40
2023-03-17T13:42:39.206Z,4.80
2023-03-17T13:45:24.638Z,5.50
2023-03-17T13:47:52.974Z,3.90
2023-03-17T13:50:33.055Z,3.90
2023-03-17T13:53:08.475Z,3.60
2023-03-17T13:55:39.407Z,5.10
2023-03-17T13:58:11.577Z,3.70
2023-03-17T14:00:42.567Z,3.80
2023-03-17T14:03:20.212Z,3.80
2023-03-17T14:05:49.602Z,3.60
2023-03-17T14:08:23.005Z,4.90
2023-03-17T14:10:58.285Z,3.80
2023-03-17T14:13:28.369Z,3.70
2023-03-17T14:16:03.932Z,3.60
2023-03-17T14:18:36.335Z,3.70
2023-03-17T14:21:10.505Z,4.10
2023-03-17T14:23:39.198Z,3.40
2023-03-17T14:26:12.313Z,3.70
2023-03-17T14:28:39.439Z,3.40
2023-03-17T14:31:08.427Z,4.20
2023-03-17T14:33:41.383Z,3.50
2023-03-17T14:36:14.329Z,3.60
2023-03-17T14:38:48.899Z,3.40
2023-03-17T14:41:27.605Z,3.30
2023-03-17T14:43:59.643Z,3.10
2023-03-17T14:46:28.186Z,3.60
2023-03-17T14:49:17.998Z,15.00
2023-03-17T14:51:49.342Z,4.00
2023-03-17T14:54:28.697Z,3.40
2023-03-17T14:57:02.398Z,4.30
2023-03-17T14:59:35.495Z,2.30
2023-03-17T15:02:28.799Z,2.60
2023-03-17T15:05:24.891Z,4.70
2023-03-17T15:07:52.127Z,3.10
2023-03-17T15:10:24.840Z,3.20
2023-03-17T15:13:05.250Z,3.70
2023-03-17T15:15:50.751Z,2.70
2023-03-17T15:18:31.712Z,4.00
2023-03-17T15:21:11.755Z,3.00
2023-03-17T15:23:41.998Z,2.60
2023-03-17T15:26:22.921Z,3.20
2023-03-17T15:31:16.971Z,2.50
2023-03-17T15:33:44.998Z,2.50
2023-03-17T15:36:31.838Z,2.90
2023-03-17T15:38:59.886Z,2.70
2023-03-17T15:41:26.901Z,3.50
2023-03-17T15:43:53.984Z,2.30
2023-03-17T15:46:27.805Z,2.80
2023-03-17T15:48:55.646Z,2.50
2023-03-17T15:51:23.241Z,3.60
2023-03-17T15:53:50.502Z,2.90
2023-03-17T15:56:21.182Z,2.90
2023-03-17T15:58:49.558Z,4.10
2023-03-17T16:01:17.508Z,2.80
2023-03-17T16:03:48.222Z,3.40
2023-03-17T16:06:18.525Z,2.50
2023-03-17T16:08:46.749Z,2.60
2023-03-17T16:11:31.430Z,2.60
2023-03-17T16:14:00.427Z,2.40
2023-03-17T16:16:34.170Z,2.40
2023-03-17T16:19:17.768Z,3.10
2023-03-17T16:21:51.483Z,3.30
2023-03-17T16:24:27.614Z,3.10
2023-03-17T16:26:54.803Z,3.60
2023-03-17T16:29:21.904Z,2.90
2023-03-17T16:31:51.247Z,3.50
2023-03-17T16:34:22.653Z,3.10
2023-03-17T16:36:50.915Z,2.50
2023-03-17T16:39:21.618Z,5.10
2023-03-17T16:41:50.277Z,6.10
2023-03-17T16:44:20.248Z,4.10
2023-03-17T16:46:48.312Z,6.20
2023-03-17T16:49:18.241Z,7.60
2023-03-17T16:51:45.865Z,4.90
2023-03-17T16:54:13.297Z,16.00
2023-03-17T16:56:42.688Z,35.60
2023-03-17T16:59:32.008Z,20.90
2023-03-17T17:01:59.174Z,10.10
2023-03-17T17:04:26.510Z,7.80
2023-03-17T17:06:53.690Z,6.70
2023-03-17T17:09:20.591Z,5.70
2023-03-17T17:11:47.538Z,5.80
2023-03-17T17:14:14.694Z,6.10
2023-03-17T17:16:41.737Z,5.30
2023-03-17T17:19:18.005Z,5.30
2023-03-17T17:21:45.363Z,4.00
2023-03-17T17:24:13.869Z,7.70
2023-03-17T17:26:41.178Z,5.80
2023-03-17T17:29:08.127Z,5.50
2023-03-17T17:31:35.236Z,5.80
2023-03-17T17:34:10.222Z,4.40
2023-03-17T17:36:51.580Z,7.50
2023-03-17T17:39:35.879Z,5.40
2023-03-17T17:42:04.832Z,5.70
2023-03-17T17:44:38.729Z,4.90
2023-03-17T17:47:26.303Z,4.20
2023-03-17T17:50:08.955Z,8.20
2023-03-17T17:52:35.909Z,5.60
2023-03-17T17:55:03.031Z,6.20
2023-03-17T17:57:30.153Z,6.50
2023-03-17T17:59:58.018Z,4.80
2023-03-17T18:02:25.027Z,6.40
2023-03-17T18:04:53.077Z,5.10
2023-03-17T18:07:20.113Z,7.10
2023-03-17T18:09:47.199Z,8.00
2023-03-17T18:12:14.865Z,7.40
2023-03-17T18:14:42.088Z,9.50
2023-03-17T18:17:09.317Z,11.60
2023-03-17T18:19:36.300Z,9.60
2023-03-17T18:22:04.128Z,9.00
2023-03-17T18:24:31.671Z,10.60
2023-03-17T18:26:59.036Z,9.50
2023-03-17T18:29:26.184Z,8.20
2023-03-17T18:31:55.244Z,9.60
2023-03-17T18:34:25.711Z,10.60
2023-03-17T18:36:53.828Z,9.80
2023-03-17T18:39:20.919Z,9.30
2023-03-17T18:41:48.898Z,10.80
2023-03-17T18:44:16.748Z,10.40
2023-03-17T18:46:44.627Z,11.60
2023-03-17T18:49:11.925Z,13.60
2023-03-17T18:51:39.428Z,15.30
2023-03-17T18:54:07.075Z,12.80
2023-03-17T18:56:34.476Z,16.10
2023-03-17T18:59:01.585Z,18.70
2023-03-17T19:01:28.700Z,33.80
2023-03-17T19:03:55.975Z,42.20
2023-03-17T19:06:23.822Z,32.30
2023-03-17T19:08:51.295Z,20.40
2023-03-17T19:11:21.910Z,21.00
2023-03-17T19:13:51.285Z,23.20
2023-03-17T19:16:19.262Z,23.00
2023-03-17T19:18:46.565Z,26.20
2023-03-17T19:21:13.790Z,25.20
2023-03-17T19:23:41.854Z,22.60
2023-03-17T19:26:09.321Z,23.30
2023-03-17T19:28:36.261Z,14.00
2023-03-17T19:31:04.141Z,15.70
2023-03-17T19:33:32.829Z,17.40
2023-03-17T19:36:05.825Z,21.20
2023-03-17T19:38:33.355Z,19.30
2023-03-17T19:41:00.955Z,18.60
2023-03-17T19:43:39.960Z,22.70
2023-03-17T19:46:10.210Z,24.70
2023-03-17T19:48:37.742Z,21.90
2023-03-17T19:51:05.314Z,24.50
2023-03-17T19:53:32.648Z,23.60
2023-03-17T19:56:01.376Z,24.70
2023-03-17T19:58:28.722Z,25.90
2023-03-17T20:00:55.764Z,27.30
2023-03-17T20:03:25.594Z,29.30
2023-03-17T20:05:53.686Z,33.90
2023-03-17T20:08:22.674Z,31.80
2023-03-17T20:10:54.095Z,31.40
2023-03-17T20:13:22.830Z,28.90
2023-03-17T20:15:52.120Z,31.70
2023-03-17T20:18:20.245Z,26.50
2023-03-17T20:20:52.576Z,25.80
2023-03-17T20:23:19.990Z,22.50
2023-03-17T20:25:47.234Z,21.60
2023-03-17T20:28:14.957Z,22.20
2023-03-17T20:30:44.305Z,21.70
2023-03-17T20:33:13.248Z,23.20
2023-03-17T20:35:42.565Z,49.30
2023-03-17T20:38:12.963Z,30.30
2023-03-17T20:40:40.968Z,23.30
2023-03-17T20:43:08.237Z,26.60
2023-03-17T20:45:36.319Z,25.00
2023-03-17T20:48:03.847Z,27.80
2023-03-17T20:50:31.403Z,30.00
2023-03-17T20:52:58.798Z,31.60
2023-03-17T20:55:26.081Z,33.20
2023-03-17T20:57:53.527Z,34.50
2023-03-17T21:00:22.258Z,36.30
2023-03-17T21:02:50.981Z,35.00
2023-03-17T21:05:21.372Z,37.50
2023-03-17T21:07:49.330Z,37.30
2023-03-17T21:10:17.711Z,37.50
2023-03-17T21:12:45.196Z,36.90
2023-03-17T21:15:13.209Z,62.70
2023-03-17T21:17:40.689Z,67.00
2023-03-17T21:20:10.185Z,68.50
2023-03-17T21:22:37.248Z,69.70
2023-03-17T21:25:05.518Z,54.50
2023-03-17T21:27:32.685Z,47.80
2023-03-17T21:29:59.718Z,53.10
2023-03-17T21:32:27.051Z,53.10
2023-03-17T21:34:54.680Z,53.00
2023-03-17T21:37:22.197Z,43.70
2023-03-17T21:39:49.830Z,51.70
2023-03-17T21:42:16.992Z,48.70
2023-03-17T21:44:46.158Z,52.60
2023-03-17T21:47:13.235Z,47.40
2023-03-17T21:49:40.598Z,48.20
2023-03-17T21:52:08.462Z,73.70
2023-03-17T21:54:35.578Z,66.70
2023-03-17T21:57:04.128Z,65.60
2023-03-17T21:59:34.703Z,65.20
2023-03-17T22:02:02.465Z,56.80
2023-03-17T22:04:30.756Z,56.40
2023-03-17T22:06:59.154Z,53.60
2023-03-17T22:09:27.170Z,49.70
2023-03-17T22:11:54.493Z,44.10
2023-03-17T22:14:22.438Z,45.50
2023-03-17T22:16:49.884Z,46.10
2023-03-17T22:19:20.623Z,47.60
2023-03-17T22:21:48.847Z,58.20
2023-03-17T22:24:17.131Z,53.10
2023-03-17T22:26:44.652Z,46.20
2023-03-17T22:29:11.722Z,57.50
2023-03-17T22:31:38.761Z,73.30
2023-03-17T22:34:07.220Z,60.30
2023-03-17T22:36:34.257Z,55.20
2023-03-17T22:39:01.340Z,48.00
2023-03-17T22:41:29.914Z,45.80
2023-03-17T22:43:58.015Z,42.30
2023-03-17T22:46:25.280Z,41.90
2023-03-17T22:48:53.217Z,42.60
2023-03-17T22:51:23.244Z,41.70
2023-03-17T22:53:52.108Z,41.20
2023-03-17T22:56:20.115Z,42.00
2023-03-17T22:58:48.193Z,40.30
2023-03-17T23:01:16.958Z,39.40
2023-03-17T23:03:45.348Z,41.00
2023-03-17T23:06:13.495Z,41.20
2023-03-17T23:08:43.387Z,43.00
2023-03-17T23:11:17.704Z,48.00
2023-03-17T23:13:46.418Z,64.00
2023-03-17T23:16:15.035Z,65.20
2023-03-17T23:18:46.113Z,61.40
2023-03-17T23:21:22.068Z,45.70
2023-03-17T23:23:49.853Z,52.50
2023-03-17T23:26:17.089Z,56.20
2023-03-17T23:28:45.237Z,50.30
2023-03-17T23:31:13.583Z,36.00
2023-03-17T23:33:40.496Z,28.30
2023-03-17T23:36:09.548Z,28.20
2023-03-17T23:38:37.017Z,26.10
2023-03-17T23:41:04.093Z,28.30
2023-03-17T23:43:31.448Z,24.40
2023-03-17T23:45:58.752Z,25.00
2023-03-17T23:48:25.698Z,24.90
2023-03-17T23:50:53.300Z,27.50
2023-03-17T23:53:22.670Z,30.60
2023-03-17T23:55:50.639Z,31.50
2023-03-17T23:58:18.597Z,27.90
